sensor_id;sensor_type;location;lat;lon;timestamp;P1;durP1;ratioP1;P2;durP2;ratioP2
10890;SDS011;5498;50.928;11.598;2023-02-28T00:00:03;62.87;;;29.63;;
10890;SDS011;5498;50.928;11.598;2023-02-28T00:03:10;63.27;;;29.47;;
10890;SDS011;5498;50.928;11.598;2023-02-28T00:06:13;67.23;;;30.47;;
10890;SDS011;5498;50.928;11.598;2023-02-28T00:09:14;67.90;;;30.27;;
10890;SDS011;5498;50.928;11.598;2023-02-28T00:12:16;62.63;;;28.03;;
10890;SDS011;5498;50.928;11.598;2023-02-28T00:15:18;66.97;;;29.60;;
10890;SDS011;5498;50.928;11.598;2023-02-28T00:18:21;68.87;;;30.30;;
10890;SDS011;5498;50.928;11.598;2023-02-28T00:21:24;69.97;;;31.07;;
10890;SDS011;5498;50.928;11.598;2023-02-28T00:24:26;71.53;;;32.20;;
10890;SDS011;5498;50.928;11.598;2023-02-28T00:27:28;70.03;;;31.90;;
10890;SDS011;5498;50.928;11.598;2023-02-28T00:30:30;67.40;;;31.40;;
10890;SDS011;5498;50.928;11.598;2023-02-28T00:33:32;65.33;;;31.43;;
10890;SDS011;5498;50.928;11.598;2023-02-28T00:36:35;66.63;;;31.90;;
10890;SDS011;5498;50.928;11.598;2023-02-28T00:39:37;68.17;;;32.90;;
10890;SDS011;5498;50.928;11.598;2023-02-28T00:42:40;68.93;;;33.87;;
10890;SDS011;5498;50.928;11.598;2023-02-28T00:45:42;67.00;;;32.77;;
10890;SDS011;5498;50.928;11.598;2023-02-28T00:48:45;66.70;;;33.50;;
10890;SDS011;5498;50.928;11.598;2023-02-28T00:51:48;67.77;;;33.60;;
10890;SDS011;5498;50.928;11.598;2023-02-28T00:54:50;61.13;;;29.90;;
10890;SDS011;5498;50.928;11.598;2023-02-28T00:57:52;60.47;;;29.97;;
10890;SDS011;5498;50.928;11.598;2023-02-28T01:00:54;65.00;;;33.57;;
10890;SDS011;5498;50.928;11.598;2023-02-28T01:03:56;65.93;;;34.73;;
10890;SDS011;5498;50.928;11.598;2023-02-28T01:06:59;67.13;;;33.60;;
10890;SDS011;5498;50.928;11.598;2023-02-28T01:10:01;61.40;;;30.53;;
10890;SDS011;5498;50.928;11.598;2023-02-28T01:13:03;62.07;;;30.23;;
10890;SDS011;5498;50.928;11.598;2023-02-28T01:16:06;64.50;;;30.93;;
10890;SDS011;5498;50.928;11.598;2023-02-28T01:19:08;64.53;;;30.87;;
10890;SDS011;5498;50.928;11.598;2023-02-28T01:22:12;69.97;;;34.13;;
10890;SDS011;5498;50.928;11.598;2023-02-28T01:25:14;69.90;;;34.33;;
10890;SDS011;5498;50.928;11.598;2023-02-28T01:28:16;72.57;;;35.20;;
10890;SDS011;5498;50.928;11.598;2023-02-28T01:31:18;72.30;;;34.83;;
10890;SDS011;5498;50.928;11.598;2023-02-28T01:34:21;81.87;;;37.50;;
10890;SDS011;5498;50.928;11.598;2023-02-28T01:37:25;79.40;;;36.90;;
10890;SDS011;5498;50.928;11.598;2023-02-28T01:40:28;80.00;;;36.73;;
10890;SDS011;5498;50.928;11.598;2023-02-28T01:43:30;80.13;;;36.60;;
10890;SDS011;5498;50.928;11.598;2023-02-28T01:46:37;82.67;;;36.70;;
10890;SDS011;5498;50.928;11.598;2023-02-28T01:49:39;84.20;;;36.33;;
10890;SDS011;5498;50.928;11.598;2023-02-28T01:52:42;82.90;;;35.77;;
10890;SDS011;5498;50.928;11.598;2023-02-28T01:55:46;84.37;;;35.70;;
10890;SDS011;5498;50.928;11.598;2023-02-28T01:58:52;82.47;;;35.43;;
10890;SDS011;5498;50.928;11.598;2023-02-28T02:01:55;94.40;;;39.60;;
10890;SDS011;5498;50.928;11.598;2023-02-28T02:04:59;91.60;;;38.67;;
10890;SDS011;5498;50.928;11.598;2023-02-28T02:08:06;90.63;;;38.97;;
10890;SDS011;5498;50.928;11.598;2023-02-28T02:11:11;82.13;;;35.87;;
10890;SDS011;5498;50.928;11.598;2023-02-28T02:14:26;79.40;;;34.67;;
10890;SDS011;5498;50.928;11.598;2023-02-28T02:17:41;79.70;;;35.20;;
10890;SDS011;5498;50.928;11.598;2023-02-28T02:20:53;77.63;;;34.60;;
10890;SDS011;5498;50.928;11.598;2023-02-28T02:24:24;77.77;;;34.60;;
10890;SDS011;5498;50.928;11.598;2023-02-28T02:28:04;82.00;;;36.83;;
10890;SDS011;5498;50.928;11.598;2023-02-28T02:31:42;80.40;;;36.87;;
10890;SDS011;5498;50.928;11.598;2023-02-28T02:35:02;76.53;;;35.80;;
10890;SDS011;5498;50.928;11.598;2023-02-28T02:38:15;76.47;;;35.93;;
10890;SDS011;5498;50.928;11.598;2023-02-28T02:41:31;78.70;;;36.90;;
10890;SDS011;5498;50.928;11.598;2023-02-28T02:44:39;73.57;;;34.43;;
10890;SDS011;5498;50.928;11.598;2023-02-28T02:47:45;76.90;;;36.10;;
10890;SDS011;5498;50.928;11.598;2023-02-28T02:50:50;72.90;;;34.33;;
10890;SDS011;5498;50.928;11.598;2023-02-28T02:53:57;73.50;;;34.80;;
10890;SDS011;5498;50.928;11.598;2023-02-28T02:57:05;76.00;;;35.27;;
10890;SDS011;5498;50.928;11.598;2023-02-28T03:00:15;80.23;;;36.40;;
10890;SDS011;5498;50.928;11.598;2023-02-28T03:03:21;100.17;;;40.10;;
10890;SDS011;5498;50.928;11.598;2023-02-28T03:06:30;76.37;;;34.97;;
10890;SDS011;5498;50.928;11.598;2023-02-28T03:09:32;74.40;;;33.73;;
10890;SDS011;5498;50.928;11.598;2023-02-28T03:12:41;83.40;;;36.30;;
10890;SDS011;5498;50.928;11.598;2023-02-28T03:15:57;84.20;;;36.17;;
10890;SDS011;5498;50.928;11.598;2023-02-28T03:19:25;91.67;;;38.67;;
10890;SDS011;5498;50.928;11.598;2023-02-28T03:22:52;87.10;;;37.63;;
10890;SDS011;5498;50.928;11.598;2023-02-28T03:26:04;111.60;;;42.40;;
10890;SDS011;5498;50.928;11.598;2023-02-28T03:29:13;119.10;;;43.80;;
10890;SDS011;5498;50.928;11.598;2023-02-28T03:32:23;121.23;;;43.87;;
10890;SDS011;5498;50.928;11.598;2023-02-28T03:35:29;116.03;;;42.87;;
10890;SDS011;5498;50.928;11.598;2023-02-28T03:38:37;120.27;;;43.53;;
10890;SDS011;5498;50.928;11.598;2023-02-28T03:41:43;114.17;;;41.77;;
10890;SDS011;5498;50.928;11.598;2023-02-28T03:44:50;109.07;;;41.80;;
10890;SDS011;5498;50.928;11.598;2023-02-28T03:47:57;104.53;;;41.03;;
10890;SDS011;5498;50.928;11.598;2023-02-28T03:51:03;103.57;;;41.10;;
10890;SDS011;5498;50.928;11.598;2023-02-28T03:54:10;109.97;;;41.97;;
10890;SDS011;5498;50.928;11.598;2023-02-28T03:57:18;108.43;;;41.30;;
10890;SDS011;5498;50.928;11.598;2023-02-28T04:00:29;103.00;;;40.37;;
10890;SDS011;5498;50.928;11.598;2023-02-28T04:03:34;98.60;;;40.23;;
10890;SDS011;5498;50.928;11.598;2023-02-28T04:06:37;96.60;;;39.37;;
10890;SDS011;5498;50.928;11.598;2023-02-28T04:09:41;98.17;;;40.00;;
10890;SDS011;5498;50.928;11.598;2023-02-28T04:12:43;96.67;;;39.50;;
10890;SDS011;5498;50.928;11.598;2023-02-28T04:15:45;97.80;;;39.70;;
10890;SDS011;5498;50.928;11.598;2023-02-28T04:18:46;94.37;;;39.37;;
10890;SDS011;5498;50.928;11.598;2023-02-28T04:21:49;95.30;;;40.00;;
10890;SDS011;5498;50.928;11.598;2023-02-28T04:24:54;94.50;;;39.53;;
10890;SDS011;5498;50.928;11.598;2023-02-28T04:27:56;95.30;;;39.57;;
10890;SDS011;5498;50.928;11.598;2023-02-28T04:30:58;98.90;;;40.10;;
10890;SDS011;5498;50.928;11.598;2023-02-28T04:34:04;100.80;;;40.23;;
10890;SDS011;5498;50.928;11.598;2023-02-28T04:37:06;99.33;;;40.03;;
10890;SDS011;5498;50.928;11.598;2023-02-28T04:40:10;96.97;;;39.53;;
10890;SDS011;5498;50.928;11.598;2023-02-28T04:43:13;99.20;;;39.93;;
10890;SDS011;5498;50.928;11.598;2023-02-28T04:46:15;102.40;;;40.87;;
10890;SDS011;5498;50.928;11.598;2023-02-28T04:49:18;100.50;;;40.50;;
10890;SDS011;5498;50.928;11.598;2023-02-28T04:52:20;96.53;;;39.90;;
10890;SDS011;5498;50.928;11.598;2023-02-28T04:55:23;96.13;;;39.67;;
10890;SDS011;5498;50.928;11.598;2023-02-28T04:58:25;95.03;;;39.33;;
10890;SDS011;5498;50.928;11.598;2023-02-28T05:01:28;95.13;;;39.90;;
10890;SDS011;5498;50.928;11.598;2023-02-28T05:04:32;91.93;;;37.83;;
10890;SDS011;5498;50.928;11.598;2023-02-28T05:07:35;100.63;;;40.23;;
10890;SDS011;5498;50.928;11.598;2023-02-28T05:10:38;88.77;;;37.03;;
10890;SDS011;5498;50.928;11.598;2023-02-28T05:13:40;88.77;;;36.83;;
10890;SDS011;5498;50.928;11.598;2023-02-28T05:16:42;93.33;;;37.77;;
10890;SDS011;5498;50.928;11.598;2023-02-28T05:19:44;98.10;;;39.23;;
10890;SDS011;5498;50.928;11.598;2023-02-28T05:22:46;95.27;;;37.93;;
10890;SDS011;5498;50.928;11.598;2023-02-28T05:25:49;102.20;;;39.20;;
10890;SDS011;5498;50.928;11.598;2023-02-28T05:28:52;100.07;;;38.70;;
10890;SDS011;5498;50.928;11.598;2023-02-28T05:31:54;108.33;;;39.17;;
10890;SDS011;5498;50.928;11.598;2023-02-28T05:34:56;130.20;;;44.10;;
10890;SDS011;5498;50.928;11.598;2023-02-28T05:37:58;132.33;;;45.00;;
10890;SDS011;5498;50.928;11.598;2023-02-28T05:41:05;116.83;;;43.10;;
10890;SDS011;5498;50.928;11.598;2023-02-28T05:44:08;104.53;;;39.57;;
10890;SDS011;5498;50.928;11.598;2023-02-28T05:47:10;109.10;;;40.73;;
10890;SDS011;5498;50.928;11.598;2023-02-28T05:50:15;114.60;;;41.23;;
10890;SDS011;5498;50.928;11.598;2023-02-28T05:53:17;117.00;;;42.73;;
10890;SDS011;5498;50.928;11.598;2023-02-28T05:56:20;107.30;;;39.90;;
10890;SDS011;5498;50.928;11.598;2023-02-28T05:59:22;110.13;;;40.50;;
10890;SDS011;5498;50.928;11.598;2023-02-28T06:02:24;112.37;;;41.10;;
10890;SDS011;5498;50.928;11.598;2023-02-28T06:05:26;114.27;;;41.53;;
10890;SDS011;5498;50.928;11.598;2023-02-28T06:08:27;112.87;;;40.90;;
10890;SDS011;5498;50.928;11.598;2023-02-28T06:11:31;111.33;;;40.97;;
10890;SDS011;5498;50.928;11.598;2023-02-28T06:14:33;114.57;;;41.30;;
10890;SDS011;5498;50.928;11.598;2023-02-28T06:17:36;117.13;;;41.97;;
10890;SDS011;5498;50.928;11.598;2023-02-28T06:20:37;114.27;;;41.37;;
10890;SDS011;5498;50.928;11.598;2023-02-28T06:23:39;114.53;;;41.47;;
10890;SDS011;5498;50.928;11.598;2023-02-28T06:26:42;118.70;;;42.27;;
10890;SDS011;5498;50.928;11.598;2023-02-28T06:29:44;118.47;;;42.13;;
10890;SDS011;5498;50.928;11.598;2023-02-28T06:32:46;119.13;;;42.47;;
10890;SDS011;5498;50.928;11.598;2023-02-28T06:35:49;114.33;;;40.37;;
10890;SDS011;5498;50.928;11.598;2023-02-28T06:38:52;121.60;;;43.07;;
10890;SDS011;5498;50.928;11.598;2023-02-28T06:41:56;121.80;;;43.10;;
10890;SDS011;5498;50.928;11.598;2023-02-28T06:44:58;118.27;;;42.00;;
10890;SDS011;5498;50.928;11.598;2023-02-28T06:48:03;121.13;;;42.70;;
10890;SDS011;5498;50.928;11.598;2023-02-28T06:51:07;119.53;;;42.20;;
10890;SDS011;5498;50.928;11.598;2023-02-28T06:54:12;120.03;;;42.43;;
10890;SDS011;5498;50.928;11.598;2023-02-28T06:57:16;122.23;;;43.03;;
10890;SDS011;5498;50.928;11.598;2023-02-28T07:00:19;124.17;;;43.10;;
10890;SDS011;5498;50.928;11.598;2023-02-28T07:03:22;123.73;;;43.27;;
10890;SDS011;5498;50.928;11.598;2023-02-28T07:06:24;123.13;;;43.10;;
10890;SDS011;5498;50.928;11.598;2023-02-28T07:09:25;121.93;;;42.60;;
10890;SDS011;5498;50.928;11.598;2023-02-28T07:12:31;126.60;;;44.03;;
10890;SDS011;5498;50.928;11.598;2023-02-28T07:15:33;128.97;;;44.57;;
10890;SDS011;5498;50.928;11.598;2023-02-28T07:18:35;127.00;;;43.37;;
10890;SDS011;5498;50.928;11.598;2023-02-28T07:21:38;124.93;;;42.93;;
10890;SDS011;5498;50.928;11.598;2023-02-28T07:24:40;125.67;;;43.47;;
10890;SDS011;5498;50.928;11.598;2023-02-28T07:27:43;121.50;;;42.50;;
10890;SDS011;5498;50.928;11.598;2023-02-28T07:30:45;119.77;;;42.13;;
10890;SDS011;5498;50.928;11.598;2023-02-28T07:33:48;110.63;;;41.13;;
10890;SDS011;5498;50.928;11.598;2023-02-28T07:36:52;108.00;;;41.17;;
10890;SDS011;5498;50.928;11.598;2023-02-28T07:39:54;107.27;;;41.10;;
10890;SDS011;5498;50.928;11.598;2023-02-28T07:42:57;105.07;;;41.00;;
10890;SDS011;5498;50.928;11.598;2023-02-28T07:46:01;104.77;;;40.53;;
10890;SDS011;5498;50.928;11.598;2023-02-28T07:49:05;105.30;;;40.60;;
10890;SDS011;5498;50.928;11.598;2023-02-28T07:52:07;106.70;;;40.77;;
10890;SDS011;5498;50.928;11.598;2023-02-28T07:55:09;104.90;;;40.67;;
10890;SDS011;5498;50.928;11.598;2023-02-28T07:58:13;98.40;;;39.63;;
10890;SDS011;5498;50.928;11.598;2023-02-28T08:01:14;97.47;;;39.47;;
10890;SDS011;5498;50.928;11.598;2023-02-28T08:04:17;92.33;;;38.90;;
10890;SDS011;5498;50.928;11.598;2023-02-28T08:07:19;89.07;;;37.87;;
10890;SDS011;5498;50.928;11.598;2023-02-28T08:10:21;88.73;;;37.97;;
10890;SDS011;5498;50.928;11.598;2023-02-28T08:13:25;84.67;;;37.47;;
10890;SDS011;5498;50.928;11.598;2023-02-28T08:16:27;82.53;;;37.20;;
10890;SDS011;5498;50.928;11.598;2023-02-28T08:19:29;69.83;;;34.20;;
10890;SDS011;5498;50.928;11.598;2023-02-28T08:22:31;65.97;;;33.77;;
10890;SDS011;5498;50.928;11.598;2023-02-28T08:25:33;66.60;;;34.73;;
10890;SDS011;5498;50.928;11.598;2023-02-28T08:28:36;63.10;;;33.37;;
10890;SDS011;5498;50.928;11.598;2023-02-28T08:31:38;54.57;;;30.53;;
10890;SDS011;5498;50.928;11.598;2023-02-28T08:34:40;53.10;;;30.83;;
10890;SDS011;5498;50.928;11.598;2023-02-28T08:37:41;47.00;;;28.00;;
10890;SDS011;5498;50.928;11.598;2023-02-28T08:40:43;41.43;;;25.27;;
10890;SDS011;5498;50.928;11.598;2023-02-28T08:43:46;40.73;;;25.27;;
10890;SDS011;5498;50.928;11.598;2023-02-28T08:46:48;39.77;;;25.00;;
10890;SDS011;5498;50.928;11.598;2023-02-28T08:49:50;42.10;;;26.77;;
10890;SDS011;5498;50.928;11.598;2023-02-28T08:52:52;40.50;;;25.93;;
10890;SDS011;5498;50.928;11.598;2023-02-28T08:55:57;46.63;;;28.10;;
10890;SDS011;5498;50.928;11.598;2023-02-28T08:59:01;42.63;;;26.90;;
10890;SDS011;5498;50.928;11.598;2023-02-28T09:02:03;40.57;;;25.67;;
10890;SDS011;5498;50.928;11.598;2023-02-28T09:05:05;47.77;;;29.47;;
10890;SDS011;5498;50.928;11.598;2023-02-28T09:08:08;51.47;;;30.20;;
10890;SDS011;5498;50.928;11.598;2023-02-28T09:11:10;60.00;;;33.83;;
10890;SDS011;5498;50.928;11.598;2023-02-28T09:14:13;53.47;;;32.00;;
10890;SDS011;5498;50.928;11.598;2023-02-28T09:17:17;52.50;;;31.53;;
10890;SDS011;5498;50.928;11.598;2023-02-28T09:20:21;52.10;;;31.30;;
10890;SDS011;5498;50.928;11.598;2023-02-28T09:23:23;53.07;;;31.60;;
10890;SDS011;5498;50.928;11.598;2023-02-28T09:26:26;56.83;;;33.03;;
10890;SDS011;5498;50.928;11.598;2023-02-28T09:29:30;54.57;;;32.20;;
10890;SDS011;5498;50.928;11.598;2023-02-28T09:32:34;54.00;;;32.07;;
10890;SDS011;5498;50.928;11.598;2023-02-28T09:35:36;54.17;;;32.13;;
10890;SDS011;5498;50.928;11.598;2023-02-28T09:38:38;54.27;;;32.50;;
10890;SDS011;5498;50.928;11.598;2023-02-28T09:41:41;53.33;;;32.03;;
10890;SDS011;5498;50.928;11.598;2023-02-28T09:44:49;54.50;;;32.57;;
10890;SDS011;5498;50.928;11.598;2023-02-28T09:47:53;51.83;;;31.03;;
10890;SDS011;5498;50.928;11.598;2023-02-28T09:50:59;52.37;;;31.27;;
10890;SDS011;5498;50.928;11.598;2023-02-28T09:54:04;51.57;;;30.90;;
10890;SDS011;5498;50.928;11.598;2023-02-28T09:57:07;50.70;;;30.43;;
10890;SDS011;5498;50.928;11.598;2023-02-28T10:00:18;50.27;;;30.40;;
10890;SDS011;5498;50.928;11.598;2023-02-28T10:03:26;51.43;;;31.03;;
10890;SDS011;5498;50.928;11.598;2023-02-28T10:06:34;52.10;;;31.33;;
10890;SDS011;5498;50.928;11.598;2023-02-28T10:09:43;51.80;;;30.97;;
10890;SDS011;5498;50.928;11.598;2023-02-28T10:12:48;51.70;;;31.00;;
10890;SDS011;5498;50.928;11.598;2023-02-28T10:15:57;51.83;;;31.23;;
10890;SDS011;5498;50.928;11.598;2023-02-28T10:19:03;51.90;;;31.03;;
10890;SDS011;5498;50.928;11.598;2023-02-28T10:22:11;52.00;;;31.20;;
10890;SDS011;5498;50.928;11.598;2023-02-28T10:25:17;52.80;;;31.97;;
10890;SDS011;5498;50.928;11.598;2023-02-28T10:28:24;52.20;;;31.47;;
10890;SDS011;5498;50.928;11.598;2023-02-28T10:31:29;51.63;;;31.00;;
10890;SDS011;5498;50.928;11.598;2023-02-28T10:34:31;52.20;;;31.20;;
10890;SDS011;5498;50.928;11.598;2023-02-28T10:37:32;51.90;;;31.10;;
10890;SDS011;5498;50.928;11.598;2023-02-28T10:40:38;51.97;;;31.23;;
10890;SDS011;5498;50.928;11.598;2023-02-28T10:43:40;51.90;;;31.13;;
10890;SDS011;5498;50.928;11.598;2023-02-28T10:46:46;58.47;;;33.73;;
10890;SDS011;5498;50.928;11.598;2023-02-28T10:49:49;54.80;;;32.30;;
10890;SDS011;5498;50.928;11.598;2023-02-28T10:52:53;55.43;;;32.13;;
10890;SDS011;5498;50.928;11.598;2023-02-28T10:55:56;56.17;;;32.20;;
10890;SDS011;5498;50.928;11.598;2023-02-28T10:59:02;56.90;;;32.90;;
10890;SDS011;5498;50.928;11.598;2023-02-28T11:02:33;57.33;;;32.67;;
10890;SDS011;5498;50.928;11.598;2023-02-28T11:05:37;57.90;;;32.50;;
10890;SDS011;5498;50.928;11.598;2023-02-28T11:08:44;59.77;;;33.73;;
10890;SDS011;5498;50.928;11.598;2023-02-28T11:11:49;56.57;;;33.00;;
10890;SDS011;5498;50.928;11.598;2023-02-28T11:14:53;52.33;;;30.83;;
10890;SDS011;5498;50.928;11.598;2023-02-28T11:18:01;55.47;;;32.83;;
10890;SDS011;5498;50.928;11.598;2023-02-28T11:21:07;53.03;;;31.53;;
10890;SDS011;5498;50.928;11.598;2023-02-28T11:24:21;52.60;;;31.17;;
10890;SDS011;5498;50.928;11.598;2023-02-28T11:27:39;51.57;;;30.60;;
10890;SDS011;5498;50.928;11.598;2023-02-28T11:30:53;54.30;;;32.53;;
10890;SDS011;5498;50.928;11.598;2023-02-28T11:34:11;54.87;;;32.70;;
10890;SDS011;5498;50.928;11.598;2023-02-28T11:37:27;51.80;;;31.03;;
10890;SDS011;5498;50.928;11.598;2023-02-28T11:40:34;54.47;;;32.67;;
10890;SDS011;5498;50.928;11.598;2023-02-28T11:43:50;51.73;;;31.13;;
10890;SDS011;5498;50.928;11.598;2023-02-28T11:47:07;51.23;;;30.87;;
10890;SDS011;5498;50.928;11.598;2023-02-28T11:50:22;53.87;;;32.63;;
10890;SDS011;5498;50.928;11.598;2023-02-28T11:53:46;51.83;;;31.20;;
10890;SDS011;5498;50.928;11.598;2023-02-28T11:57:16;51.17;;;30.83;;
10890;SDS011;5498;50.928;11.598;2023-02-28T12:00:52;51.03;;;30.83;;
10890;SDS011;5498;50.928;11.598;2023-02-28T12:04:19;51.50;;;31.20;;
10890;SDS011;5498;50.928;11.598;2023-02-28T12:07:29;51.93;;;31.40;;
10890;SDS011;5498;50.928;11.598;2023-02-28T12:10:44;51.20;;;30.70;;
10890;SDS011;5498;50.928;11.598;2023-02-28T12:14:18;52.13;;;31.30;;
10890;SDS011;5498;50.928;11.598;2023-02-28T12:17:39;50.53;;;30.43;;
10890;SDS011;5498;50.928;11.598;2023-02-28T12:20:57;51.60;;;31.03;;
10890;SDS011;5498;50.928;11.598;2023-02-28T12:24:11;51.07;;;30.93;;
10890;SDS011;5498;50.928;11.598;2023-02-28T12:27:31;51.53;;;31.13;;
10890;SDS011;5498;50.928;11.598;2023-02-28T12:30:40;51.40;;;31.00;;
10890;SDS011;5498;50.928;11.598;2023-02-28T12:33:50;51.00;;;31.03;;
10890;SDS011;5498;50.928;11.598;2023-02-28T12:36:56;51.40;;;31.10;;
10890;SDS011;5498;50.928;11.598;2023-02-28T12:40:09;50.87;;;30.57;;
10890;SDS011;5498;50.928;11.598;2023-02-28T12:43:16;51.57;;;31.33;;
10890;SDS011;5498;50.928;11.598;2023-02-28T12:46:21;51.40;;;30.90;;
10890;SDS011;5498;50.928;11.598;2023-02-28T12:49:25;51.30;;;30.90;;
10890;SDS011;5498;50.928;11.598;2023-02-28T12:52:35;51.77;;;31.20;;
10890;SDS011;5498;50.928;11.598;2023-02-28T12:55:48;51.50;;;31.07;;
10890;SDS011;5498;50.928;11.598;2023-02-28T12:58:56;51.10;;;30.63;;
10890;SDS011;5498;50.928;11.598;2023-02-28T13:02:18;50.63;;;30.47;;
10890;SDS011;5498;50.928;11.598;2023-02-28T13:06:05;51.37;;;30.97;;
10890;SDS011;5498;50.928;11.598;2023-02-28T13:09:19;50.87;;;30.80;;
10890;SDS011;5498;50.928;11.598;2023-02-28T13:12:23;51.23;;;30.97;;
10890;SDS011;5498;50.928;11.598;2023-02-28T13:15:25;51.30;;;30.83;;
10890;SDS011;5498;50.928;11.598;2023-02-28T13:18:29;49.60;;;30.07;;
10890;SDS011;5498;50.928;11.598;2023-02-28T13:21:43;50.97;;;30.70;;
10890;SDS011;5498;50.928;11.598;2023-02-28T13:24:46;51.00;;;30.83;;
10890;SDS011;5498;50.928;11.598;2023-02-28T13:27:53;51.40;;;30.87;;
10890;SDS011;5498;50.928;11.598;2023-02-28T13:31:03;50.17;;;30.33;;
10890;SDS011;5498;50.928;11.598;2023-02-28T13:34:14;50.63;;;30.70;;
10890;SDS011;5498;50.928;11.598;2023-02-28T13:40:37;52.00;;;31.50;;
10890;SDS011;5498;50.928;11.598;2023-02-28T13:50:38;50.70;;;30.70;;
10890;SDS011;5498;50.928;11.598;2023-02-28T13:53:45;49.87;;;30.40;;
10890;SDS011;5498;50.928;11.598;2023-02-28T13:57:04;50.37;;;30.47;;
10890;SDS011;5498;50.928;11.598;2023-02-28T14:00:23;50.90;;;31.00;;
10890;SDS011;5498;50.928;11.598;2023-02-28T14:03:38;50.97;;;31.00;;
10890;SDS011;5498;50.928;11.598;2023-02-28T14:06:54;50.80;;;30.80;;
10890;SDS011;5498;50.928;11.598;2023-02-28T14:09:59;50.93;;;30.87;;
10890;SDS011;5498;50.928;11.598;2023-02-28T14:13:12;50.90;;;30.90;;
10890;SDS011;5498;50.928;11.598;2023-02-28T14:16:46;51.10;;;30.80;;
10890;SDS011;5498;50.928;11.598;2023-02-28T14:19:50;51.07;;;31.30;;
10890;SDS011;5498;50.928;11.598;2023-02-28T14:22:54;46.70;;;28.83;;
10890;SDS011;5498;50.928;11.598;2023-02-28T14:26:10;48.37;;;29.70;;
10890;SDS011;5498;50.928;11.598;2023-02-28T14:29:30;49.30;;;30.23;;
10890;SDS011;5498;50.928;11.598;2023-02-28T14:33:11;49.30;;;30.27;;
10890;SDS011;5498;50.928;11.598;2023-02-28T14:36:25;48.87;;;30.07;;
10890;SDS011;5498;50.928;11.598;2023-02-28T14:39:33;49.90;;;30.50;;
10890;SDS011;5498;50.928;11.598;2023-02-28T14:42:37;48.83;;;30.10;;
10890;SDS011;5498;50.928;11.598;2023-02-28T14:45:44;48.80;;;30.03;;
10890;SDS011;5498;50.928;11.598;2023-02-28T14:48:53;48.43;;;29.63;;
10890;SDS011;5498;50.928;11.598;2023-02-28T14:52:02;51.20;;;31.60;;
10890;SDS011;5498;50.928;11.598;2023-02-28T14:55:12;50.10;;;30.57;;
10890;SDS011;5498;50.928;11.598;2023-02-28T14:58:23;51.63;;;31.20;;
10890;SDS011;5498;50.928;11.598;2023-02-28T15:01:26;49.63;;;30.17;;
10890;SDS011;5498;50.928;11.598;2023-02-28T15:04:30;52.33;;;31.60;;
10890;SDS011;5498;50.928;11.598;2023-02-28T15:07:33;50.77;;;31.07;;
10890;SDS011;5498;50.928;11.598;2023-02-28T15:10:34;50.83;;;31.13;;
10890;SDS011;5498;50.928;11.598;2023-02-28T15:13:38;51.03;;;30.90;;
10890;SDS011;5498;50.928;11.598;2023-02-28T15:16:48;50.80;;;30.60;;
10890;SDS011;5498;50.928;11.598;2023-02-28T15:19:55;50.30;;;30.60;;
10890;SDS011;5498;50.928;11.598;2023-02-28T15:22:57;50.17;;;30.63;;
10890;SDS011;5498;50.928;11.598;2023-02-28T15:26:00;50.80;;;31.07;;
10890;SDS011;5498;50.928;11.598;2023-02-28T15:29:04;49.80;;;30.63;;
10890;SDS011;5498;50.928;11.598;2023-02-28T15:32:20;48.50;;;29.73;;
10890;SDS011;5498;50.928;11.598;2023-02-28T15:35:29;50.07;;;30.87;;
10890;SDS011;5498;50.928;11.598;2023-02-28T15:38:33;48.10;;;29.83;;
10890;SDS011;5498;50.928;11.598;2023-02-28T15:41:37;48.70;;;29.97;;
10890;SDS011;5498;50.928;11.598;2023-02-28T15:44:39;48.37;;;29.87;;
10890;SDS011;5498;50.928;11.598;2023-02-28T15:47:44;48.27;;;29.70;;
10890;SDS011;5498;50.928;11.598;2023-02-28T15:50:50;48.03;;;29.87;;
10890;SDS011;5498;50.928;11.598;2023-02-28T15:53:56;48.20;;;29.60;;
10890;SDS011;5498;50.928;11.598;2023-02-28T15:57:03;48.70;;;29.90;;
10890;SDS011;5498;50.928;11.598;2023-02-28T16:00:10;49.37;;;30.40;;
10890;SDS011;5498;50.928;11.598;2023-02-28T16:03:24;49.23;;;30.03;;
10890;SDS011;5498;50.928;11.598;2023-02-28T16:06:36;49.43;;;30.10;;
10890;SDS011;5498;50.928;11.598;2023-02-28T16:09:42;49.63;;;30.43;;
10890;SDS011;5498;50.928;11.598;2023-02-28T16:12:43;49.60;;;30.43;;
10890;SDS011;5498;50.928;11.598;2023-02-28T16:15:45;48.07;;;29.43;;
10890;SDS011;5498;50.928;11.598;2023-02-28T16:18:49;49.47;;;30.33;;
10890;SDS011;5498;50.928;11.598;2023-02-28T16:21:52;50.23;;;30.53;;
10890;SDS011;5498;50.928;11.598;2023-02-28T16:24:54;52.10;;;31.30;;
10890;SDS011;5498;50.928;11.598;2023-02-28T16:27:56;50.80;;;30.70;;
10890;SDS011;5498;50.928;11.598;2023-02-28T16:31:00;50.63;;;30.60;;
10890;SDS011;5498;50.928;11.598;2023-02-28T16:34:04;51.33;;;30.90;;
10890;SDS011;5498;50.928;11.598;2023-02-28T16:37:10;51.00;;;30.63;;
10890;SDS011;5498;50.928;11.598;2023-02-28T16:40:15;51.30;;;31.20;;
10890;SDS011;5498;50.928;11.598;2023-02-28T16:43:22;50.10;;;30.70;;
10890;SDS011;5498;50.928;11.598;2023-02-28T16:46:27;48.90;;;30.03;;
10890;SDS011;5498;50.928;11.598;2023-02-28T16:49:32;49.97;;;30.60;;
10890;SDS011;5498;50.928;11.598;2023-02-28T16:52:35;50.33;;;30.83;;
10890;SDS011;5498;50.928;11.598;2023-02-28T16:55:37;50.23;;;30.70;;
10890;SDS011;5498;50.928;11.598;2023-02-28T16:58:39;49.53;;;30.03;;
10890;SDS011;5498;50.928;11.598;2023-02-28T17:01:41;50.50;;;30.87;;
10890;SDS011;5498;50.928;11.598;2023-02-28T17:04:42;49.63;;;30.23;;
10890;SDS011;5498;50.928;11.598;2023-02-28T17:07:46;49.53;;;30.37;;
10890;SDS011;5498;50.928;11.598;2023-02-28T17:10:48;49.97;;;30.73;;
10890;SDS011;5498;50.928;11.598;2023-02-28T17:13:50;50.23;;;30.53;;
10890;SDS011;5498;50.928;11.598;2023-02-28T17:16:53;51.03;;;30.97;;
10890;SDS011;5498;50.928;11.598;2023-02-28T17:19:55;50.37;;;30.80;;
10890;SDS011;5498;50.928;11.598;2023-02-28T17:22:59;51.37;;;31.23;;
10890;SDS011;5498;50.928;11.598;2023-02-28T17:26:02;50.67;;;30.80;;
10890;SDS011;5498;50.928;11.598;2023-02-28T17:29:11;51.27;;;31.03;;
10890;SDS011;5498;50.928;11.598;2023-02-28T17:32:16;50.40;;;30.67;;
10890;SDS011;5498;50.928;11.598;2023-02-28T17:35:18;50.33;;;30.60;;
10890;SDS011;5498;50.928;11.598;2023-02-28T17:38:21;50.50;;;30.93;;
10890;SDS011;5498;50.928;11.598;2023-02-28T17:41:23;50.70;;;30.73;;
10890;SDS011;5498;50.928;11.598;2023-02-28T17:44:26;50.80;;;30.87;;
10890;SDS011;5498;50.928;11.598;2023-02-28T17:47:28;50.17;;;30.67;;
10890;SDS011;5498;50.928;11.598;2023-02-28T17:50:29;50.80;;;30.93;;
10890;SDS011;5498;50.928;11.598;2023-02-28T17:53:33;51.43;;;31.23;;
10890;SDS011;5498;50.928;11.598;2023-02-28T17:56:35;50.50;;;30.93;;
10890;SDS011;5498;50.928;11.598;2023-02-28T17:59:37;51.30;;;31.17;;
10890;SDS011;5498;50.928;11.598;2023-02-28T18:02:41;51.00;;;30.87;;
10890;SDS011;5498;50.928;11.598;2023-02-28T18:05:43;50.80;;;30.90;;
10890;SDS011;5498;50.928;11.598;2023-02-28T18:08:47;51.53;;;31.27;;
10890;SDS011;5498;50.928;11.598;2023-02-28T18:11:52;51.53;;;31.40;;
10890;SDS011;5498;50.928;11.598;2023-02-28T18:14:55;49.90;;;30.30;;